Time;durP1;ratioP1;P1;durP2;ratioP2;P2;SDS_P1;SDS_P2;PMS_P1;PMS_P2;Temp;Humidity;BMP_temperature;BMP_pressure;BME280_temperature;BME280_humidity;BME280_pressure;Samples;Min_cycle;Max_cycle;Signal;HPM_P1;HPM_P2
2023/11/25 00:01:34;;;;;;;20.90;14.32;;;;;;;;;;4955722;29;20044;-76
2023/11/25 00:04:00;;;;;;;11.75;9.13;;;;;;;;;;4956080;29;20514;-76
2023/11/25 00:06:27;;;;;;;10.88;7.93;;;;;;;;;;4955328;29;20058;-76
2023/11/25 00:08:53;;;;;;;22.55;14.55;;;;;;;;;;4963306;28;20054;-76
2023/11/25 00:11:19;;;;;;;23.27;13.10;;;;;;;;;;4974948;28;20046;-76
2023/11/25 00:13:46;;;;;;;23.35;14.65;;;;;;;;;;4974391;28;20042;-74
2023/11/25 00:16:12;;;;;;;21.38;12.00;;;;;;;;;;4974256;28;20090;-75
2023/11/25 00:18:38;;;;;;;23.75;13.80;;;;;;;;;;4974382;28;20034;-74
2023/11/25 00:21:04;;;;;;;24.27;15.52;;;;;;;;;;4957433;28;20098;-76
2023/11/25 00:23:30;;;;;;;19.63;10.88;;;;;;;;;;4974233;28;20081;-74
2023/11/25 00:25:57;;;;;;;28.17;17.25;;;;;;;;;;4974812;28;20061;-74
2023/11/25 00:28:22;;;;;;;16.00;10.23;;;;;;;;;;4975713;28;20091;-75
2023/11/25 00:30:48;;;;;;;17.13;11.13;;;;;;;;;;4984044;28;20151;-76
2023/11/25 00:33:14;;;;;;;22.10;12.27;;;;;;;;;;4962560;28;20106;-78
2023/11/25 00:35:40;;;;;;;18.98;10.15;;;;;;;;;;4974189;28;20069;-76
2023/11/25 00:38:08;;;;;;;15.43;10.20;;;;;;;;;;4965368;28;20094;-76
2023/11/25 00:40:35;;;;;;;15.45;9.23;;;;;;;;;;4987326;28;20106;-75
2023/11/25 00:43:01;;;;;;;28.58;17.50;;;;;;;;;;4971204;28;20320;-73
2023/11/25 00:45:27;;;;;;;17.25;11.00;;;;;;;;;;4987923;28;20047;-77
2023/11/25 00:47:56;;;;;;;14.88;11.20;;;;;;;;;;4987370;28;20079;-75
2023/11/25 00:50:22;;;;;;;20.98;10.50;;;;;;;;;;4955160;28;20039;-75
2023/11/25 00:52:48;;;;;;;16.42;10.77;;;;;;;;;;4968425;28;20054;-76
2023/11/25 00:55:14;;;;;;;25.77;17.77;;;;;;;;;;4976769;28;20061;-75
2023/11/25 00:57:40;;;;;;;14.52;10.32;;;;;;;;;;4988423;28;20379;-75
2023/11/25 01:00:15;;;;;;;22.35;15.15;;;;;;;;;;4956991;28;20533;-75
2023/11/25 01:02:42;;;;;;;23.48;14.25;;;;;;;;;;4971395;28;20055;-75
2023/11/25 01:05:08;;;;;;;28.50;16.30;;;;;;;;;;4973999;28;20050;-76
2023/11/25 01:07:34;;;;;;;31.90;18.88;;;;;;;;;;4972484;28;20039;-76
2023/11/25 01:10:00;;;;;;;27.70;17.30;;;;;;;;;;4951759;28;20117;-76
2023/11/25 01:12:26;;;;;;;11.73;9.27;;;;;;;;;;4972209;28;20039;-74
2023/11/25 01:14:52;;;;;;;15.05;9.48;;;;;;;;;;4972244;28;20046;-75
2023/11/25 01:17:18;;;;;;;15.57;9.68;;;;;;;;;;4972258;28;20065;-75
2023/11/25 01:19:44;;;;;;;20.75;11.57;;;;;;;;;;4974097;28;20039;-75
2023/11/25 01:22:10;;;;;;;25.58;13.95;;;;;;;;;;4988890;28;20050;-74
2023/11/25 01:24:36;;;;;;;10.77;8.85;;;;;;;;;;4973934;28;20307;-73
2023/11/25 01:27:02;;;;;;;23.98;13.50;;;;;;;;;;4988464;28;20075;-76
2023/11/25 01:29:28;;;;;;;11.90;8.77;;;;;;;;;;4973624;28;20039;-75
2023/11/25 01:31:54;;;;;;;16.05;10.55;;;;;;;;;;4972084;28;20054;-75
2023/11/25 01:34:20;;;;;;;15.32;10.57;;;;;;;;;;4972093;28;20053;-74
2023/11/25 01:36:47;;;;;;;18.52;11.70;;;;;;;;;;4972368;28;20093;-74
2023/11/25 01:39:13;;;;;;;16.30;11.18;;;;;;;;;;4955969;28;20081;-76
2023/11/25 01:41:40;;;;;;;14.07;9.65;;;;;;;;;;4971737;28;20117;-76
2023/11/25 01:44:07;;;;;;;10.70;9.20;;;;;;;;;;4987213;28;20575;-76
2023/11/25 01:46:38;;;;;;;21.67;12.82;;;;;;;;;;4972111;28;20050;-76
2023/11/25 01:49:05;;;;;;;13.85;9.88;;;;;;;;;;4988679;28;20034;-75
2023/11/25 01:51:31;;;;;;;10.55;7.47;;;;;;;;;;4956423;28;20062;-75
2023/11/25 01:53:58;;;;;;;19.27;10.73;;;;;;;;;;4956765;28;20097;-75
2023/11/25 01:56:25;;;;;;;17.15;10.32;;;;;;;;;;4972817;28;20059;-75
2023/11/25 01:58:51;;;;;;;20.27;10.05;;;;;;;;;;4972331;28;20085;-76
2023/11/25 02:01:17;;;;;;;18.98;13.18;;;;;;;;;;4973992;28;20083;-77
2023/11/25 02:03:43;;;;;;;20.30;13.63;;;;;;;;;;4972447;28;20042;-76
2023/11/25 02:06:09;;;;;;;22.48;12.82;;;;;;;;;;4987959;28;20515;-75
2023/11/25 02:08:36;;;;;;;19.25;9.93;;;;;;;;;;4972705;28;20202;-76
2023/11/25 02:11:02;;;;;;;16.48;8.85;;;;;;;;;;4973650;28;20058;-73
2023/11/25 02:13:27;;;;;;;16.55;10.02;;;;;;;;;;4973720;28;20042;-76
2023/11/25 02:15:54;;;;;;;26.17;15.20;;;;;;;;;;4973462;28;20058;-76
2023/11/25 02:18:20;;;;;;;16.45;9.82;;;;;;;;;;4987231;28;20034;-75
2023/11/25 02:21:06;;;;;;;21.73;14.60;;;;;;;;;;4957603;28;20061;-75
2023/11/25 02:23:32;;;;;;;15.60;10.80;;;;;;;;;;4972299;28;20421;-76
2023/11/25 02:25:58;;;;;;;17.15;11.73;;;;;;;;;;4987057;28;20101;-76
2023/11/25 02:28:26;;;;;;;17.58;11.63;;;;;;;;;;4987171;28;20042;-76
2023/11/25 02:30:52;;;;;;;15.23;9.73;;;;;;;;;;4970995;28;20050;-76
2023/11/25 02:33:18;;;;;;;26.48;17.55;;;;;;;;;;4972152;28;20098;-76
2023/11/25 02:35:46;;;;;;;16.48;9.82;;;;;;;;;;4986617;28;20054;-75
2023/11/25 02:38:12;;;;;;;20.13;14.57;;;;;;;;;;4970950;28;20055;-74
2023/11/25 02:40:39;;;;;;;12.38;9.57;;;;;;;;;;4971762;28;20054;-75
2023/11/25 02:43:07;;;;;;;14.48;8.77;;;;;;;;;;4972740;28;20047;-74
2023/11/25 02:45:33;;;;;;;13.10;8.68;;;;;;;;;;4954312;28;20809;-75
2023/11/25 02:47:59;;;;;;;25.48;17.55;;;;;;;;;;4971361;28;20042;-75
2023/11/25 02:50:25;;;;;;;26.33;15.45;;;;;;;;;;4957608;28;20109;-74
2023/11/25 02:52:51;;;;;;;14.23;10.00;;;;;;;;;;4920134;29;20051;-73
2023/11/25 02:55:20;;;;;;;11.05;7.97;;;;;;;;;;4935186;29;20054;-75
2023/11/25 02:57:47;;;;;;;23.88;16.00;;;;;;;;;;4935652;29;20062;-75
2023/11/25 03:02:51;;;;;;;16.85;12.02;;;;;;;;;;4935418;29;20113;-75
2023/11/25 03:05:17;;;;;;;19.40;14.43;;;;;;;;;;4952755;29;20047;-75
2023/11/25 03:07:44;;;;;;;18.55;11.98;;;;;;;;;;4935362;29;20122;-74
2023/11/25 03:10:13;;;;;;;20.23;11.20;;;;;;;;;;4970676;28;20193;-76
2023/11/25 03:12:42;;;;;;;18.70;11.90;;;;;;;;;;4985935;28;20054;-75
2023/11/25 03:15:08;;;;;;;14.02;10.98;;;;;;;;;;4954608;28;20042;-75
2023/11/25 03:17:35;;;;;;;17.80;12.43;;;;;;;;;;4970492;28;20433;-77
2023/11/25 03:20:01;;;;;;;19.73;14.57;;;;;;;;;;4971567;28;20043;-75
2023/11/25 03:22:29;;;;;;;18.08;10.30;;;;;;;;;;4985719;28;20369;-76
2023/11/25 03:24:55;;;;;;;16.02;8.07;;;;;;;;;;4970289;28;20043;-76
2023/11/25 03:27:22;;;;;;;21.70;14.02;;;;;;;;;;4986160;28;20047;-77
2023/11/25 03:29:48;;;;;;;9.02;8.18;;;;;;;;;;4954503;28;20049;-76
2023/11/25 03:32:14;;;;;;;16.08;10.30;;;;;;;;;;4954143;28;20046;-76
2023/11/25 03:34:41;;;;;;;12.75;9.20;;;;;;;;;;4971639;28;20054;-77
2023/11/25 03:37:08;;;;;;;13.45;11.45;;;;;;;;;;4971673;28;20558;-76
2023/11/25 03:39:35;;;;;;;14.27;9.65;;;;;;;;;;4985794;28;20125;-77
2023/11/25 03:42:02;;;;;;;19.75;13.93;;;;;;;;;;4969943;28;20062;-76
2023/11/25 03:44:28;;;;;;;12.70;9.63;;;;;;;;;;4969822;28;20109;-75
2023/11/25 03:46:54;;;;;;;12.60;9.15;;;;;;;;;;4970423;28;20055;-76
2023/11/25 03:49:21;;;;;;;13.50;8.48;;;;;;;;;;4969493;28;20046;-75
2023/11/25 03:51:47;;;;;;;8.77;7.28;;;;;;;;;;4970375;28;20054;-76
2023/11/25 03:54:13;;;;;;;6.38;5.78;;;;;;;;;;4970426;28;20546;-77
2023/11/25 03:56:40;;;;;;;16.45;9.30;;;;;;;;;;4971427;28;20057;-76
2023/11/25 03:59:08;;;;;;;14.02;9.93;;;;;;;;;;4986394;28;20035;-77
2023/11/25 04:01:34;;;;;;;12.68;10.80;;;;;;;;;;4969667;28;20046;-75
2023/11/25 04:04:01;;;;;;;10.07;7.97;;;;;;;;;;4986233;28;20414;-75
2023/11/25 04:06:28;;;;;;;20.13;12.43;;;;;;;;;;4971934;28;20085;-75
2023/11/25 04:08:54;;;;;;;17.90;13.20;;;;;;;;;;4974702;28;20047;-76
2023/11/25 04:11:20;;;;;;;13.15;11.13;;;;;;;;;;4974505;28;20043;-75
2023/11/25 04:13:47;;;;;;;15.38;11.90;;;;;;;;;;4974734;28;20053;-75
2023/11/25 04:16:13;;;;;;;12.35;9.48;;;;;;;;;;4989568;28;20187;-76
2023/11/25 04:18:41;;;;;;;16.40;12.07;;;;;;;;;;4989281;28;20409;-75
2023/11/25 04:21:07;;;;;;;14.98;10.27;;;;;;;;;;4973233;28;20039;-76
2023/11/25 04:23:33;;;;;;;22.70;16.30;;;;;;;;;;4973494;28;20509;-74
2023/11/25 04:26:00;;;;;;;23.58;14.93;;;;;;;;;;4957203;28;20046;-76
2023/11/25 04:28:26;;;;;;;18.05;12.05;;;;;;;;;;4989310;28;20111;-75
2023/11/25 04:30:52;;;;;;;22.77;14.23;;;;;;;;;;4973236;28;20080;-75
2023/11/25 04:33:18;;;;;;;23.80;13.93;;;;;;;;;;4974614;28;20065;-76
2023/11/25 04:35:45;;;;;;;21.48;13.98;;;;;;;;;;4974023;28;20078;-75
2023/11/25 04:38:11;;;;;;;15.80;11.48;;;;;;;;;;4972821;28;20137;-76
2023/11/25 04:40:37;;;;;;;10.52;8.23;;;;;;;;;;4973808;28;20047;-75
2023/11/25 04:43:03;;;;;;;22.50;14.00;;;;;;;;;;4974301;28;20039;-75
2023/11/25 04:45:29;;;;;;;31.33;21.45;;;;;;;;;;4973884;28;20129;-74
2023/11/25 04:47:55;;;;;;;25.15;16.30;;;;;;;;;;4956547;28;20038;-76
2023/11/25 04:50:22;;;;;;;34.97;20.88;;;;;;;;;;4974074;28;20543;-75
2023/11/25 04:52:49;;;;;;;28.70;16.45;;;;;;;;;;4984032;28;20056;-75
2023/11/25 04:55:15;;;;;;;33.83;18.33;;;;;;;;;;4997979;28;20056;-75
2023/11/25 04:57:42;;;;;;;24.27;14.10;;;;;;;;;;4979989;28;20424;-77
2023/11/25 05:00:11;;;;;;;24.20;16.25;;;;;;;;;;4994204;28;20654;-77
2023/11/25 05:02:37;;;;;;;18.52;12.65;;;;;;;;;;4976580;28;20046;-77
2023/11/25 05:05:04;;;;;;;28.95;18.85;;;;;;;;;;4977479;28;20043;-76
2023/11/25 05:07:31;;;;;;;25.05;15.98;;;;;;;;;;4959688;28;20472;-76
2023/11/25 05:09:59;;;;;;;17.80;14.43;;;;;;;;;;4979629;28;20070;-75
2023/11/25 05:12:25;;;;;;;32.83;23.38;;;;;;;;;;4944400;28;20086;-76
2023/11/25 05:14:51;;;;;;;13.82;11.23;;;;;;;;;;4956706;28;20043;-76
2023/11/25 05:17:21;;;;;;;26.67;20.13;;;;;;;;;;4972181;28;20540;-75
2023/11/25 05:19:48;;;;;;;24.33;14.88;;;;;;;;;;4988458;28;20528;-76
2023/11/25 05:22:14;;;;;;;21.55;16.42;;;;;;;;;;4940510;28;20091;-76
2023/11/25 05:24:40;;;;;;;26.15;16.90;;;;;;;;;;4988319;28;20051;-76
2023/11/25 05:27:06;;;;;;;24.40;17.83;;;;;;;;;;4955990;28;20513;-76
2023/11/25 05:29:32;;;;;;;26.48;16.27;;;;;;;;;;4973103;28;20126;-75
2023/11/25 05:31:58;;;;;;;19.38;12.85;;;;;;;;;;4955796;28;20049;-77
2023/11/25 05:34:24;;;;;;;16.90;12.70;;;;;;;;;;4972648;28;20043;-75
2023/11/25 05:36:50;;;;;;;21.35;14.25;;;;;;;;;;4939887;28;20089;-75
2023/11/25 05:39:20;;;;;;;29.23;20.45;;;;;;;;;;4956044;28;20541;-75
2023/11/25 05:41:49;;;;;;;28.30;19.17;;;;;;;;;;4955740;28;20042;-77
2023/11/25 05:44:15;;;;;;;22.95;12.18;;;;;;;;;;4955782;28;20093;-76
2023/11/25 05:46:42;;;;;;;30.73;21.17;;;;;;;;;;4972748;28;20043;-78
2023/11/25 05:49:08;;;;;;;19.70;12.00;;;;;;;;;;4956738;28;20047;-75
2023/11/25 05:51:36;;;;;;;30.48;19.50;;;;;;;;;;4939567;28;20557;-76
2023/11/25 05:54:02;;;;;;;20.52;15.43;;;;;;;;;;4935608;29;20541;-76
2023/11/25 05:56:29;;;;;;;23.75;16.55;;;;;;;;;;4963307;28;20425;-75
2023/11/25 05:58:56;;;;;;;26.17;18.10;;;;;;;;;;4949330;29;20054;-74
2023/11/25 06:01:22;;;;;;;27.45;20.88;;;;;;;;;;4946359;29;20039;-76
2023/11/25 06:03:52;;;;;;;25.38;18.50;;;;;;;;;;4933851;28;20055;-75
2023/11/25 06:06:22;;;;;;;14.75;11.68;;;;;;;;;;4948153;28;20405;-76
2023/11/25 06:08:48;;;;;;;20.05;14.20;;;;;;;;;;4940361;28;20466;-76
2023/11/25 06:11:21;;;;;;;34.17;21.38;;;;;;;;;;4933790;28;20054;-75
2023/11/25 06:13:47;;;;;;;29.58;17.15;;;;;;;;;;4944052;28;20046;-74
2023/11/25 06:16:13;;;;;;;28.08;17.10;;;;;;;;;;4943230;28;20058;-75
2023/11/25 06:18:39;;;;;;;20.25;14.75;;;;;;;;;;4929036;28;20069;-75
2023/11/25 06:21:05;;;;;;;23.23;14.30;;;;;;;;;;4970348;28;20050;-75
2023/11/25 06:23:32;;;;;;;34.95;21.42;;;;;;;;;;4966199;28;20039;-76
2023/11/25 06:25:59;;;;;;;23.13;14.20;;;;;;;;;;4959711;28;20117;-76
2023/11/25 06:28:25;;;;;;;24.10;13.98;;;;;;;;;;4956938;28;20047;-77
2023/11/25 06:30:54;;;;;;;22.00;14.15;;;;;;;;;;4939057;28;20043;-78
2023/11/25 06:33:22;;;;;;;15.88;12.30;;;;;;;;;;4965036;28;20512;-78
2023/11/25 06:35:48;;;;;;;22.05;15.85;;;;;;;;;;4957006;28;20031;-78
2023/11/25 06:38:14;;;;;;;27.20;16.13;;;;;;;;;;4971275;28;20055;-77
2023/11/25 06:40:40;;;;;;;17.92;14.18;;;;;;;;;;4967448;29;20047;-77
2023/11/25 06:43:06;;;;;;;15.98;11.43;;;;;;;;;;4946020;29;20075;-77
2023/11/25 06:45:34;;;;;;;19.77;14.48;;;;;;;;;;4944902;29;20071;-79
2023/11/25 06:48:01;;;;;;;26.17;17.70;;;;;;;;;;4946784;29;20050;-77
2023/11/25 06:50:28;;;;;;;27.02;18.58;;;;;;;;;;4944614;29;20052;-76
2023/11/25 06:52:54;;;;;;;23.75;17.92;;;;;;;;;;4951119;29;20043;-77
2023/11/25 06:55:21;;;;;;;24.63;18.20;;;;;;;;;;4962237;29;20031;-79
2023/11/25 06:57:49;;;;;;;31.98;18.02;;;;;;;;;;4940259;28;20109;-75
2023/11/25 07:00:15;;;;;;;17.48;11.50;;;;;;;;;;4966626;28;20031;-74
2023/11/25 07:02:41;;;;;;;32.20;16.20;;;;;;;;;;4984888;28;20043;-76
2023/11/25 07:05:07;;;;;;;29.13;16.92;;;;;;;;;;4969735;28;20579;-77
2023/11/25 07:07:34;;;;;;;20.73;11.90;;;;;;;;;;4968474;28;20065;-77
2023/11/25 07:10:00;;;;;;;32.17;17.13;;;;;;;;;;4967184;28;20042;-79
2023/11/25 07:12:26;;;;;;;24.70;15.43;;;;;;;;;;4960385;28;20043;-78
2023/11/25 07:14:52;;;;;;;11.68;7.78;;;;;;;;;;4973054;28;20031;-79
2023/11/25 07:17:18;;;;;;;36.83;19.92;;;;;;;;;;4939697;28;20114;-78
2023/11/25 07:19:44;;;;;;;20.73;12.50;;;;;;;;;;4973287;28;20127;-77
2023/11/25 07:22:10;;;;;;;24.52;13.95;;;;;;;;;;4972118;28;20625;-76
2023/11/25 07:24:39;;;;;;;16.73;11.13;;;;;;;;;;4953843;28;20046;-76
2023/11/25 07:27:06;;;;;;;14.45;10.73;;;;;;;;;;4972454;28;20077;-76
2023/11/25 07:29:33;;;;;;;21.05;15.30;;;;;;;;;;4955520;28;20039;-77
2023/11/25 07:32:00;;;;;;;15.70;11.32;;;;;;;;;;4972981;28;20047;-78
2023/11/25 07:34:31;;;;;;;22.52;11.45;;;;;;;;;;4972808;28;20034;-76
2023/11/25 07:36:58;;;;;;;12.85;9.55;;;;;;;;;;4973235;28;20055;-76
2023/11/25 07:39:24;;;;;;;20.40;12.20;;;;;;;;;;4972242;28;20042;-77
2023/11/25 07:41:53;;;;;;;14.93;10.38;;;;;;;;;;4942887;28;20053;-78
2023/11/25 07:44:21;;;;;;;14.35;11.02;;;;;;;;;;4945966;28;20599;-76
2023/11/25 07:46:48;;;;;;;20.42;13.60;;;;;;;;;;4953731;28;20057;-77
2023/11/25 07:49:14;;;;;;;14.48;9.88;;;;;;;;;;4986409;28;20482;-77
2023/11/25 07:51:40;;;;;;;11.55;9.02;;;;;;;;;;4986298;28;20042;-77
2023/11/25 07:54:08;;;;;;;20.05;11.07;;;;;;;;;;4988591;28;20086;-76
2023/11/25 07:56:34;;;;;;;14.40;9.90;;;;;;;;;;4988005;28;20058;-77
2023/11/25 07:59:00;;;;;;;20.92;14.82;;;;;;;;;;4971706;28;20054;-78
2023/11/25 08:01:27;;;;;;;6.65;6.05;;;;;;;;;;4972025;28;20054;-77
2023/11/25 08:03:52;;;;;;;25.48;15.05;;;;;;;;;;4985468;28;20038;-77
2023/11/25 08:06:18;;;;;;;18.88;11.63;;;;;;;;;;4977768;28;20121;-78
2023/11/25 08:08:45;;;;;;;28.13;17.63;;;;;;;;;;4976365;28;20518;-77
2023/11/25 08:11:11;;;;;;;22.85;14.57;;;;;;;;;;4974775;28;20477;-76
2023/11/25 08:13:37;;;;;;;15.38;11.00;;;;;;;;;;4990704;28;20046;-78
2023/11/25 08:16:04;;;;;;;18.60;10.52;;;;;;;;;;4978252;28;20042;-75
2023/11/25 08:18:31;;;;;;;15.95;10.13;;;;;;;;;;4981825;28;20042;-78
2023/11/25 08:20:57;;;;;;;20.83;10.63;;;;;;;;;;4992088;28;20055;-78
2023/11/25 08:23:23;;;;;;;15.20;10.90;;;;;;;;;;4962075;28;20615;-77
2023/11/25 08:25:49;;;;;;;15.90;10.05;;;;;;;;;;4974249;28;20046;-78
2023/11/25 08:28:15;;;;;;;31.20;11.77;;;;;;;;;;4963154;28;20045;-77
2023/11/25 08:30:41;;;;;;;20.15;13.60;;;;;;;;;;4974346;28;20110;-76
2023/11/25 08:33:07;;;;;;;13.98;9.27;;;;;;;;;;4965621;28;20039;-77
2023/11/25 08:35:33;;;;;;;17.75;11.27;;;;;;;;;;4974070;28;20046;-77
2023/11/25 08:37:59;;;;;;;13.30;9.65;;;;;;;;;;4974346;28;20050;-77
2023/11/25 08:40:27;;;;;;;20.67;13.70;;;;;;;;;;4974622;28;20046;-78
2023/11/25 08:42:54;;;;;;;12.52;9.70;;;;;;;;;;4974173;28;20051;-77
2023/11/25 08:45:20;;;;;;;12.13;10.00;;;;;;;;;;4974347;28;20047;-76
2023/11/25 08:47:46;;;;;;;19.67;12.48;;;;;;;;;;4956765;28;20031;-77
2023/11/25 08:50:15;;;;;;;18.88;12.52;;;;;;;;;;4974054;28;20053;-76
2023/11/25 08:52:42;;;;;;;20.35;11.05;;;;;;;;;;4972981;28;20540;-76
2023/11/25 08:55:09;;;;;;;17.45;11.13;;;;;;;;;;4973869;28;20054;-77
2023/11/25 08:57:38;;;;;;;16.10;10.48;;;;;;;;;;4988424;28;20145;-77
2023/11/25 09:00:14;;;;;;;22.80;14.18;;;;;;;;;;4989144;28;20121;-77
2023/11/25 09:02:44;;;;;;;29.08;18.70;;;;;;;;;;4958319;28;20154;-78
2023/11/25 09:05:10;;;;;;;22.92;15.45;;;;;;;;;;4974103;28;20501;-78
2023/11/25 09:07:38;;;;;;;16.70;10.90;;;;;;;;;;4973765;28;20050;-77
2023/11/25 09:10:05;;;;;;;5.32;4.93;;;;;;;;;;4956861;28;20114;-76
2023/11/25 09:12:31;;;;;;;13.45;8.13;;;;;;;;;;4972517;28;20109;-77
2023/11/25 09:14:57;;;;;;;13.98;10.10;;;;;;;;;;4976242;28;20074;-77
2023/11/25 09:17:25;;;;;;;18.60;11.82;;;;;;;;;;4948983;28;20573;-76
2023/11/25 09:19:51;;;;;;;15.32;10.32;;;;;;;;;;4982684;28;20066;-78
2023/11/25 09:22:17;;;;;;;17.70;13.68;;;;;;;;;;4983591;28;20049;-77
2023/11/25 09:24:44;;;;;;;11.02;8.38;;;;;;;;;;4963749;28;20042;-76
2023/11/25 09:27:13;;;;;;;7.25;6.65;;;;;;;;;;4964340;28;20125;-77
2023/11/25 09:29:42;;;;;;;14.98;9.07;;;;;;;;;;4939914;28;20034;-76
2023/11/25 09:32:09;;;;;;;19.73;11.88;;;;;;;;;;4970554;28;20038;-76
2023/11/25 09:34:35;;;;;;;18.77;11.38;;;;;;;;;;4972655;28;20038;-77
2023/11/25 09:37:02;;;;;;;20.75;12.35;;;;;;;;;;4972767;28;20737;-76
2023/11/25 09:39:28;;;;;;;13.80;8.07;;;;;;;;;;4963812;28;20054;-76
2023/11/25 09:41:54;;;;;;;12.43;7.78;;;;;;;;;;4987971;28;20046;-77
2023/11/25 09:44:21;;;;;;;10.57;7.32;;;;;;;;;;4972849;28;20178;-78
2023/11/25 09:46:47;;;;;;;27.77;14.73;;;;;;;;;;4972669;28;20035;-77
2023/11/25 09:49:14;;;;;;;16.40;10.98;;;;;;;;;;4974532;28;20041;-79
2023/11/25 09:51:40;;;;;;;26.42;14.07;;;;;;;;;;4975789;28;20050;-79
2023/11/25 09:54:07;;;;;;;22.27;12.82;;;;;;;;;;4967421;28;20055;-79
2023/11/25 09:56:34;;;;;;;24.98;14.35;;;;;;;;;;4977952;28;20066;-80
2023/11/25 09:59:00;;;;;;;29.95;14.52;;;;;;;;;;4980553;28;20073;-80
2023/11/25 10:01:27;;;;;;;9.27;4.63;;;;;;;;;;4959696;28;20049;-80
2023/11/25 10:03:54;;;;;;;11.45;9.43;;;;;;;;;;4984994;28;20057;-79
2023/11/25 10:06:20;;;;;;;7.32;6.70;;;;;;;;;;4969995;28;20043;-80
2023/11/25 10:08:46;;;;;;;19.27;12.20;;;;;;;;;;4997394;28;20047;-79
2023/11/25 10:11:14;;;;;;;14.27;9.70;;;;;;;;;;4976178;28;20130;-80
2023/11/25 10:13:42;;;;;;;13.85;7.68;;;;;;;;;;4965016;28;20046;-79
2023/11/25 10:16:08;;;;;;;18.92;10.45;;;;;;;;;;4982263;28;20049;-80
2023/11/25 10:18:37;;;;;;;9.10;7.47;;;;;;;;;;4988522;28;20039;-79
2023/11/25 10:21:05;;;;;;;22.08;15.00;;;;;;;;;;4981132;28;20035;-79
2023/11/25 10:23:32;;;;;;;15.93;12.75;;;;;;;;;;5000865;28;20106;-80
2023/11/25 10:26:03;;;;;;;17.55;11.75;;;;;;;;;;4973391;28;20039;-80
2023/11/25 10:28:33;;;;;;;24.85;15.63;;;;;;;;;;4969799;28;20046;-79
2023/11/25 10:31:00;;;;;;;26.08;15.32;;;;;;;;;;4978938;28;20031;-80
2023/11/25 10:33:27;;;;;;;22.77;13.10;;;;;;;;;;4968763;28;20046;-80
2023/11/25 10:35:53;;;;;;;26.92;13.13;;;;;;;;;;4968242;28;20050;-79
2023/11/25 10:38:22;;;;;;;26.17;14.15;;;;;;;;;;4989873;28;20500;-79
2023/11/25 10:40:51;;;;;;;10.80;9.68;;;;;;;;;;4975038;28;20049;-80
2023/11/25 10:43:18;;;;;;;13.30;9.13;;;;;;;;;;4983892;28;20054;-80
2023/11/25 10:45:44;;;;;;;26.70;15.05;;;;;;;;;;4985601;28;20061;-79
2023/11/25 10:48:11;;;;;;;9.73;7.88;;;;;;;;;;4981887;28;20046;-80
2023/11/25 10:50:39;;;;;;;10.40;6.97;;;;;;;;;;4994028;28;20149;-80
2023/11/25 10:53:05;;;;;;;24.95;14.43;;;;;;;;;;4963568;28;20047;-79
2023/11/25 10:55:32;;;;;;;24.73;15.50;;;;;;;;;;4966797;28;20047;-80
2023/11/25 10:58:00;;;;;;;22.05;13.18;;;;;;;;;;4975662;28;20118;-79
2023/11/25 11:00:30;;;;;;;23.90;14.02;;;;;;;;;;4989625;28;20042;-79
2023/11/25 11:02:57;;;;;;;25.70;13.32;;;;;;;;;;4946496;28;20046;-80
2023/11/25 11:05:35;;;;;;;9.15;7.95;;;;;;;;;;4977809;28;20064;-80
2023/11/25 11:08:03;;;;;;;31.50;16.33;;;;;;;;;;4948790;28;20073;-79
2023/11/25 11:10:49;;;;;;;31.45;15.23;;;;;;;;;;4954670;28;20125;-78
2023/11/25 11:13:16;;;;;;;29.75;14.88;;;;;;;;;;4972344;28;20054;-79
2023/11/25 11:15:42;;;;;;;22.10;13.38;;;;;;;;;;4989853;28;20589;-79
2023/11/25 11:18:16;;;;;;;16.73;11.07;;;;;;;;;;4977361;28;20194;-78
2023/11/25 11:20:51;;;;;;;21.75;13.48;;;;;;;;;;4977695;28;20042;-79
2023/11/25 11:23:19;;;;;;;17.95;12.13;;;;;;;;;;4972297;28;20038;-79
2023/11/25 11:26:03;;;;;;;21.98;13.77;;;;;;;;;;4977021;28;20039;-78
2023/11/25 11:28:38;;;;;;;25.33;14.48;;;;;;;;;;4974840;28;20034;-79
2023/11/25 11:31:34;;;;;;;17.70;11.65;;;;;;;;;;4978225;28;20047;-77
2023/11/25 11:34:01;;;;;;;15.02;10.02;;;;;;;;;;4993327;28;20034;-79
2023/11/25 11:36:30;;;;;;;19.25;12.77;;;;;;;;;;4971192;28;20363;-79
2023/11/25 11:38:56;;;;;;;12.68;10.43;;;;;;;;;;4980154;28;20527;-79
2023/11/25 11:41:23;;;;;;;20.92;12.45;;;;;;;;;;4997688;28;20053;-80
2023/11/25 11:44:05;;;;;;;23.05;13.32;;;;;;;;;;4982190;28;20061;-78
2023/11/25 11:46:32;;;;;;;11.35;8.38;;;;;;;;;;4989471;28;20125;-80
2023/11/25 11:49:00;;;;;;;7.80;6.72;;;;;;;;;;4985931;28;20505;-80
2023/11/25 11:51:28;;;;;;;26.98;14.88;;;;;;;;;;4974505;28;20126;-79
2023/11/25 11:54:13;;;;;;;9.43;8.38;;;;;;;;;;4967887;28;20054;-79
2023/11/25 11:56:57;;;;;;;28.00;14.70;;;;;;;;;;4996848;28;20195;-80
2023/11/25 11:59:33;;;;;;;17.48;9.35;;;;;;;;;;4993204;28;20054;-79
2023/11/25 12:01:59;;;;;;;11.18;8.45;;;;;;;;;;4981853;28;20046;-79
2023/11/25 12:04:25;;;;;;;11.07;8.70;;;;;;;;;;4987041;28;20039;-79
2023/11/25 12:06:52;;;;;;;23.52;14.68;;;;;;;;;;4982938;28;20276;-80
2023/11/25 12:09:18;;;;;;;21.00;10.52;;;;;;;;;;4995613;28;20042;-80
2023/11/25 12:11:50;;;;;;;19.02;8.98;;;;;;;;;;4953119;28;20054;-80
2023/11/25 12:14:16;;;;;;;6.72;6.13;;;;;;;;;;4978858;28;20046;-79
2023/11/25 12:16:43;;;;;;;22.63;13.00;;;;;;;;;;4971996;28;20042;-81
2023/11/25 12:19:09;;;;;;;17.40;11.95;;;;;;;;;;4968268;28;20046;-82
2023/11/25 12:21:35;;;;;;;30.30;15.13;;;;;;;;;;4977667;28;20045;-81
2023/11/25 12:24:01;;;;;;;34.47;17.45;;;;;;;;;;5002496;28;20042;-81
2023/11/25 12:26:27;;;;;;;27.45;16.13;;;;;;;;;;4941410;28;20022;-82
2023/11/25 12:28:53;;;;;;;14.73;9.23;;;;;;;;;;4994918;28;20049;-82
2023/11/25 12:31:19;;;;;;;11.48;8.48;;;;;;;;;;4986384;28;20034;-81
2023/11/25 12:33:45;;;;;;;21.70;11.70;;;;;;;;;;4964047;28;20034;-79
2023/11/25 12:36:11;;;;;;;8.00;6.03;;;;;;;;;;5012730;28;20084;-80
2023/11/25 12:38:37;;;;;;;15.02;9.45;;;;;;;;;;4998470;28;20042;-79
2023/11/25 12:41:10;;;;;;;14.65;11.55;;;;;;;;;;4980572;28;20070;-81
2023/11/25 12:43:37;;;;;;;37.92;16.38;;;;;;;;;;4976183;28;20507;-81
2023/11/25 12:46:08;;;;;;;16.02;10.38;;;;;;;;;;4982011;28;20061;-81
2023/11/25 12:48:35;;;;;;;27.27;15.98;;;;;;;;;;4995919;28;20042;-80
2023/11/25 12:51:06;;;;;;;22.73;14.15;;;;;;;;;;4984411;28;21277;-75
2023/11/25 12:53:32;;;;;;;31.13;15.73;;;;;;;;;;4968698;28;20039;-79
2023/11/25 12:55:59;;;;;;;31.35;14.55;;;;;;;;;;4985791;28;20043;-75
2023/11/25 12:58:25;;;;;;;24.30;14.70;;;;;;;;;;4970204;28;20070;-76
2023/11/25 13:00:54;;;;;;;21.77;13.35;;;;;;;;;;4982135;23;20090;-76
2023/11/25 13:03:20;;;;;;;22.90;12.50;;;;;;;;;;4916145;28;20178;-76
2023/11/25 13:05:49;;;;;;;25.95;14.73;;;;;;;;;;4953850;28;20058;-75
2023/11/25 13:08:22;;;;;;;24.30;14.02;;;;;;;;;;4955005;28;20039;-78
2023/11/25 13:10:48;;;;;;;28.58;14.43;;;;;;;;;;4973961;28;20043;-77
2023/11/25 13:13:14;;;;;;;6.97;6.05;;;;;;;;;;4956987;28;20042;-77
2023/11/25 13:15:40;;;;;;;24.50;13.10;;;;;;;;;;4977804;28;20117;-76
2023/11/25 13:18:07;;;;;;;25.27;14.40;;;;;;;;;;4970134;28;20287;-77
2023/11/25 13:20:34;;;;;;;40.88;20.88;;;;;;;;;;4968017;28;20125;-76
2023/11/25 13:23:00;;;;;;;29.52;16.05;;;;;;;;;;4966291;28;20061;-76
2023/11/25 13:25:26;;;;;;;32.80;16.73;;;;;;;;;;4960900;28;20504;-74
2023/11/25 13:27:52;;;;;;;31.63;16.30;;;;;;;;;;4966573;28;20080;-77
2023/11/25 13:30:18;;;;;;;27.50;15.45;;;;;;;;;;4947660;28;20049;-77
2023/11/25 13:32:44;;;;;;;31.05;17.58;;;;;;;;;;4972077;28;20050;-77
2023/11/25 13:35:09;;;;;;;27.48;15.98;;;;;;;;;;4956967;28;20054;-78
2023/11/25 13:37:36;;;;;;;27.42;15.30;;;;;;;;;;4957888;28;20054;-77
2023/11/25 13:40:12;;;;;;;27.17;15.15;;;;;;;;;;4957985;28;20043;-78
2023/11/25 13:42:38;;;;;;;22.98;15.20;;;;;;;;;;4957444;28;20043;-78
2023/11/25 13:45:05;;;;;;;23.10;13.27;;;;;;;;;;4956852;28;20611;-77
2023/11/25 13:47:31;;;;;;;25.17;13.43;;;;;;;;;;4937488;29;20054;-77
2023/11/25 13:49:58;;;;;;;27.80;15.70;;;;;;;;;;4953740;29;20414;-76
2023/11/25 13:52:24;;;;;;;27.05;15.55;;;;;;;;;;4937867;29;20043;-77
2023/11/25 13:54:50;;;;;;;22.25;10.90;;;;;;;;;;4954197;29;20031;-77
2023/11/25 13:57:16;;;;;;;21.10;14.02;;;;;;;;;;4954183;29;20103;-78
2023/11/25 13:59:42;;;;;;;15.82;9.60;;;;;;;;;;4972993;28;20205;-77
2023/11/25 14:02:08;;;;;;;26.25;16.65;;;;;;;;;;4945876;28;20405;-78
2023/11/25 14:04:38;;;;;;;9.00;7.18;;;;;;;;;;4937810;29;20168;-77
2023/11/25 14:07:05;;;;;;;32.97;15.75;;;;;;;;;;4937393;29;20043;-77
2023/11/25 14:09:31;;;;;;;17.63;10.45;;;;;;;;;;4950747;28;20049;-78
2023/11/25 14:11:57;;;;;;;25.85;15.82;;;;;;;;;;4936502;28;20097;-77
2023/11/25 14:14:23;;;;;;;26.92;15.88;;;;;;;;;;4951650;28;20055;-76
2023/11/25 14:16:49;;;;;;;22.33;13.75;;;;;;;;;;4973051;28;20058;-78
2023/11/25 14:19:17;;;;;;;21.75;14.13;;;;;;;;;;4952044;28;20031;-78
2023/11/25 14:21:43;;;;;;;26.63;15.40;;;;;;;;;;4966639;28;20051;-77
2023/11/25 14:24:09;;;;;;;20.20;11.95;;;;;;;;;;4937235;28;20489;-78